Port Orchard, Washington
Current Conditions -  °F | °C
As of 8:15 PM on Tuesday 27 Jan 2015 (Local Time) from KPWT Reporting Station
Overcast Overcast  
Wind Chill: 42°   Ceiling: 800
Heat Index: 46°   Visibility: 5mi
Dew Point: 45°   Wind: 8mph
Humidity: 93%   Direction: 210°SSW
Pressure: 30.22"   Gusts: NA
Location:  47.53°N, 122.64°W
Report Text: KPWT 280415Z AUTO 21007KT 5SM OVC008 08/07 A3022 RMK AO1
Loading
Personal Weather Stations






























Interactive Weather Map New forecast layout! Learn more

10-Day Weather Forecast

Advertisements
Track Severe Weather on mobile